sensor_id;sensor_type;location;lat;lon;timestamp;P1;durP1;ratioP1;P2;durP2;ratioP2
22007;SDS011;11168;56.976;24.168;2024-03-29T00:01:32;12.93;;;8.75;;
22007;SDS011;11168;56.976;24.168;2024-03-29T00:04:00;12.00;;;8.45;;
22007;SDS011;11168;56.976;24.168;2024-03-29T00:06:25;13.25;;;9.05;;
22007;SDS011;11168;56.976;24.168;2024-03-29T00:08:51;13.18;;;8.07;;
22007;SDS011;11168;56.976;24.168;2024-03-29T00:11:20;12.73;;;7.68;;
22007;SDS011;11168;56.976;24.168;2024-03-29T00:13:46;17.75;;;8.40;;
22007;SDS011;11168;56.976;24.168;2024-03-29T00:16:12;14.60;;;8.32;;
22007;SDS011;11168;56.976;24.168;2024-03-29T00:18:41;12.57;;;8.10;;
22007;SDS011;11168;56.976;24.168;2024-03-29T00:21:07;14.85;;;8.40;;
22007;SDS011;11168;56.976;24.168;2024-03-29T00:23:33;13.85;;;8.27;;
22007;SDS011;11168;56.976;24.168;2024-03-29T00:25:59;12.60;;;8.32;;
22007;SDS011;11168;56.976;24.168;2024-03-29T00:28:26;10.50;;;7.82;;
22007;SDS011;11168;56.976;24.168;2024-03-29T00:30:52;16.52;;;8.20;;
22007;SDS011;11168;56.976;24.168;2024-03-29T00:33:18;14.70;;;7.95;;
22007;SDS011;11168;56.976;24.168;2024-03-29T00:35:44;16.00;;;8.63;;
22007;SDS011;11168;56.976;24.168;2024-03-29T00:38:10;12.07;;;8.15;;
22007;SDS011;11168;56.976;24.168;2024-03-29T00:40:36;13.73;;;9.30;;
22007;SDS011;11168;56.976;24.168;2024-03-29T00:43:03;14.13;;;8.43;;
22007;SDS011;11168;56.976;24.168;2024-03-29T00:45:30;10.93;;;8.15;;
22007;SDS011;11168;56.976;24.168;2024-03-29T00:47:57;12.25;;;8.45;;
22007;SDS011;11168;56.976;24.168;2024-03-29T00:50:22;14.20;;;8.07;;
22007;SDS011;11168;56.976;24.168;2024-03-29T00:52:48;14.15;;;8.18;;
22007;SDS011;11168;56.976;24.168;2024-03-29T00:55:15;14.52;;;8.77;;
22007;SDS011;11168;56.976;24.168;2024-03-29T00:57:42;14.93;;;8.23;;
22007;SDS011;11168;56.976;24.168;2024-03-29T01:00:08;12.70;;;8.63;;
22007;SDS011;11168;56.976;24.168;2024-03-29T01:02:37;12.82;;;7.85;;
22007;SDS011;11168;56.976;24.168;2024-03-29T01:05:05;13.90;;;8.00;;
22007;SDS011;11168;56.976;24.168;2024-03-29T01:07:32;14.75;;;8.40;;
22007;SDS011;11168;56.976;24.168;2024-03-29T01:09:58;13.07;;;8.88;;
22007;SDS011;11168;56.976;24.168;2024-03-29T01:12:24;14.02;;;8.18;;
22007;SDS011;11168;56.976;24.168;2024-03-29T01:14:50;11.48;;;8.23;;
22007;SDS011;11168;56.976;24.168;2024-03-29T01:17:19;12.95;;;8.18;;
22007;SDS011;11168;56.976;24.168;2024-03-29T01:19:45;17.30;;;8.38;;
22007;SDS011;11168;56.976;24.168;2024-03-29T01:22:14;14.50;;;8.13;;
22007;SDS011;11168;56.976;24.168;2024-03-29T01:24:43;10.65;;;7.50;;
22007;SDS011;11168;56.976;24.168;2024-03-29T01:27:11;12.65;;;8.18;;
22007;SDS011;11168;56.976;24.168;2024-03-29T01:29:37;17.65;;;8.07;;
22007;SDS011;11168;56.976;24.168;2024-03-29T01:32:04;11.65;;;8.23;;
22007;SDS011;11168;56.976;24.168;2024-03-29T01:34:31;13.98;;;8.40;;
22007;SDS011;11168;56.976;24.168;2024-03-29T01:36:58;11.30;;;8.07;;
22007;SDS011;11168;56.976;24.168;2024-03-29T01:39:24;14.30;;;8.18;;
22007;SDS011;11168;56.976;24.168;2024-03-29T01:41:54;15.00;;;8.27;;
22007;SDS011;11168;56.976;24.168;2024-03-29T01:44:20;12.95;;;7.80;;
22007;SDS011;11168;56.976;24.168;2024-03-29T01:46:46;12.60;;;8.45;;
22007;SDS011;11168;56.976;24.168;2024-03-29T01:49:19;11.80;;;7.72;;
22007;SDS011;11168;56.976;24.168;2024-03-29T01:51:45;13.63;;;8.98;;
22007;SDS011;11168;56.976;24.168;2024-03-29T01:54:11;12.55;;;8.80;;
22007;SDS011;11168;56.976;24.168;2024-03-29T01:56:37;11.82;;;8.75;;
22007;SDS011;11168;56.976;24.168;2024-03-29T01:59:10;18.08;;;10.13;;
22007;SDS011;11168;56.976;24.168;2024-03-29T02:01:40;15.50;;;10.35;;
22007;SDS011;11168;56.976;24.168;2024-03-29T02:04:07;16.15;;;11.15;;
22007;SDS011;11168;56.976;24.168;2024-03-29T02:06:37;19.88;;;12.05;;
22007;SDS011;11168;56.976;24.168;2024-03-29T02:09:05;19.73;;;12.40;;
22007;SDS011;11168;56.976;24.168;2024-03-29T02:11:31;21.67;;;13.77;;
22007;SDS011;11168;56.976;24.168;2024-03-29T02:13:58;21.55;;;14.60;;
22007;SDS011;11168;56.976;24.168;2024-03-29T02:16:24;22.48;;;15.95;;
22007;SDS011;11168;56.976;24.168;2024-03-29T02:18:50;24.30;;;15.02;;
22007;SDS011;11168;56.976;24.168;2024-03-29T02:21:16;26.73;;;17.25;;
22007;SDS011;11168;56.976;24.168;2024-03-29T02:23:43;27.92;;;17.15;;
22007;SDS011;11168;56.976;24.168;2024-03-29T02:26:11;25.63;;;17.55;;
22007;SDS011;11168;56.976;24.168;2024-03-29T02:28:37;25.33;;;18.85;;
22007;SDS011;11168;56.976;24.168;2024-03-29T02:31:03;31.55;;;19.33;;
22007;SDS011;11168;56.976;24.168;2024-03-29T02:33:30;28.77;;;19.05;;
22007;SDS011;11168;56.976;24.168;2024-03-29T02:35:56;29.02;;;19.63;;
22007;SDS011;11168;56.976;24.168;2024-03-29T02:38:22;28.45;;;19.83;;
22007;SDS011;11168;56.976;24.168;2024-03-29T02:40:48;27.20;;;19.73;;
22007;SDS011;11168;56.976;24.168;2024-03-29T02:43:14;28.20;;;20.05;;
22007;SDS011;11168;56.976;24.168;2024-03-29T02:45:40;25.75;;;19.73;;
22007;SDS011;11168;56.976;24.168;2024-03-29T02:48:06;30.35;;;20.42;;
22007;SDS011;11168;56.976;24.168;2024-03-29T02:50:32;29.02;;;20.73;;
22007;SDS011;11168;56.976;24.168;2024-03-29T02:52:58;28.77;;;20.25;;
22007;SDS011;11168;56.976;24.168;2024-03-29T02:55:24;32.17;;;21.88;;
22007;SDS011;11168;56.976;24.168;2024-03-29T02:57:51;38.15;;;22.67;;
22007;SDS011;11168;56.976;24.168;2024-03-29T03:00:17;29.20;;;20.88;;
22007;SDS011;11168;56.976;24.168;2024-03-29T03:02:43;30.38;;;20.88;;
22007;SDS011;11168;56.976;24.168;2024-03-29T03:05:12;30.05;;;21.35;;
22007;SDS011;11168;56.976;24.168;2024-03-29T03:07:38;31.38;;;21.58;;
22007;SDS011;11168;56.976;24.168;2024-03-29T03:10:23;32.17;;;22.50;;
22007;SDS011;11168;56.976;24.168;2024-03-29T03:13:08;34.95;;;22.92;;
22007;SDS011;11168;56.976;24.168;2024-03-29T03:15:34;38.65;;;23.75;;
22007;SDS011;11168;56.976;24.168;2024-03-29T03:17:59;34.00;;;23.58;;
22007;SDS011;11168;56.976;24.168;2024-03-29T03:20:26;32.67;;;24.88;;
22007;SDS011;11168;56.976;24.168;2024-03-29T03:22:56;35.50;;;25.10;;
22007;SDS011;11168;56.976;24.168;2024-03-29T03:25:26;36.85;;;24.25;;
22007;SDS011;11168;56.976;24.168;2024-03-29T03:27:52;38.17;;;25.20;;
22007;SDS011;11168;56.976;24.168;2024-03-29T03:30:19;41.90;;;25.00;;
22007;SDS011;11168;56.976;24.168;2024-03-29T03:32:44;42.60;;;26.83;;
22007;SDS011;11168;56.976;24.168;2024-03-29T03:35:11;42.55;;;28.02;;
22007;SDS011;11168;56.976;24.168;2024-03-29T03:37:37;38.55;;;27.00;;
22007;SDS011;11168;56.976;24.168;2024-03-29T03:40:03;39.13;;;27.35;;
22007;SDS011;11168;56.976;24.168;2024-03-29T03:42:32;45.47;;;28.50;;
22007;SDS011;11168;56.976;24.168;2024-03-29T03:45:00;41.95;;;28.38;;
22007;SDS011;11168;56.976;24.168;2024-03-29T03:47:26;42.53;;;28.90;;
22007;SDS011;11168;56.976;24.168;2024-03-29T03:49:52;44.47;;;30.00;;
22007;SDS011;11168;56.976;24.168;2024-03-29T03:52:18;43.58;;;29.77;;
22007;SDS011;11168;56.976;24.168;2024-03-29T03:54:44;42.45;;;28.20;;
22007;SDS011;11168;56.976;24.168;2024-03-29T03:57:10;41.22;;;27.27;;
22007;SDS011;11168;56.976;24.168;2024-03-29T03:59:36;41.90;;;27.13;;
22007;SDS011;11168;56.976;24.168;2024-03-29T04:02:02;38.17;;;25.38;;
22007;SDS011;11168;56.976;24.168;2024-03-29T04:04:28;35.58;;;24.50;;
22007;SDS011;11168;56.976;24.168;2024-03-29T04:06:55;38.30;;;25.38;;
22007;SDS011;11168;56.976;24.168;2024-03-29T04:09:21;40.45;;;25.92;;
22007;SDS011;11168;56.976;24.168;2024-03-29T04:11:48;38.63;;;24.88;;
22007;SDS011;11168;56.976;24.168;2024-03-29T04:14:14;51.20;;;32.88;;
22007;SDS011;11168;56.976;24.168;2024-03-29T04:16:40;40.70;;;25.77;;
22007;SDS011;11168;56.976;24.168;2024-03-29T04:19:06;39.08;;;22.85;;
22007;SDS011;11168;56.976;24.168;2024-03-29T04:21:32;33.63;;;19.60;;
22007;SDS011;11168;56.976;24.168;2024-03-29T04:23:58;31.48;;;19.65;;
22007;SDS011;11168;56.976;24.168;2024-03-29T04:26:24;28.98;;;18.20;;
22007;SDS011;11168;56.976;24.168;2024-03-29T04:28:50;30.13;;;17.70;;
22007;SDS011;11168;56.976;24.168;2024-03-29T04:31:19;23.92;;;15.95;;
22007;SDS011;11168;56.976;24.168;2024-03-29T04:33:45;27.92;;;16.77;;
22007;SDS011;11168;56.976;24.168;2024-03-29T04:36:13;27.80;;;16.67;;
22007;SDS011;11168;56.976;24.168;2024-03-29T04:38:39;26.50;;;16.63;;
22007;SDS011;11168;56.976;24.168;2024-03-29T04:41:05;26.08;;;15.70;;
22007;SDS011;11168;56.976;24.168;2024-03-29T04:43:31;22.45;;;14.80;;
22007;SDS011;11168;56.976;24.168;2024-03-29T04:46:03;25.42;;;13.70;;
22007;SDS011;11168;56.976;24.168;2024-03-29T04:48:37;21.67;;;13.73;;
22007;SDS011;11168;56.976;24.168;2024-03-29T04:51:07;20.85;;;13.30;;
22007;SDS011;11168;56.976;24.168;2024-03-29T04:53:35;21.98;;;13.50;;
22007;SDS011;11168;56.976;24.168;2024-03-29T04:56:02;20.90;;;12.43;;
22007;SDS011;11168;56.976;24.168;2024-03-29T04:58:28;20.50;;;11.77;;
22007;SDS011;11168;56.976;24.168;2024-03-29T05:00:54;19.02;;;12.15;;
22007;SDS011;11168;56.976;24.168;2024-03-29T05:03:20;20.30;;;11.90;;
22007;SDS011;11168;56.976;24.168;2024-03-29T05:05:48;19.80;;;12.65;;
22007;SDS011;11168;56.976;24.168;2024-03-29T05:08:17;18.52;;;12.48;;
22007;SDS011;11168;56.976;24.168;2024-03-29T05:10:45;19.70;;;12.30;;
22007;SDS011;11168;56.976;24.168;2024-03-29T05:13:12;20.33;;;12.68;;
22007;SDS011;11168;56.976;24.168;2024-03-29T05:15:38;19.98;;;13.35;;
22007;SDS011;11168;56.976;24.168;2024-03-29T05:18:04;22.17;;;13.27;;
22007;SDS011;11168;56.976;24.168;2024-03-29T05:20:31;21.23;;;13.27;;
22007;SDS011;11168;56.976;24.168;2024-03-29T05:22:57;20.67;;;12.90;;
22007;SDS011;11168;56.976;24.168;2024-03-29T05:25:24;19.80;;;12.55;;
22007;SDS011;11168;56.976;24.168;2024-03-29T05:27:51;20.35;;;12.23;;
22007;SDS011;11168;56.976;24.168;2024-03-29T05:30:17;21.00;;;12.73;;
22007;SDS011;11168;56.976;24.168;2024-03-29T05:32:43;18.48;;;11.50;;
22007;SDS011;11168;56.976;24.168;2024-03-29T05:35:09;17.65;;;11.68;;
22007;SDS011;11168;56.976;24.168;2024-03-29T05:37:36;19.38;;;11.57;;
22007;SDS011;11168;56.976;24.168;2024-03-29T05:40:02;17.08;;;11.27;;
22007;SDS011;11168;56.976;24.168;2024-03-29T05:42:33;18.27;;;11.25;;
22007;SDS011;11168;56.976;24.168;2024-03-29T05:45:01;19.58;;;10.85;;
22007;SDS011;11168;56.976;24.168;2024-03-29T05:47:27;17.42;;;11.23;;
22007;SDS011;11168;56.976;24.168;2024-03-29T05:49:53;20.38;;;12.25;;
22007;SDS011;11168;56.976;24.168;2024-03-29T05:52:19;20.10;;;12.45;;
22007;SDS011;11168;56.976;24.168;2024-03-29T05:54:48;21.92;;;12.75;;
22007;SDS011;11168;56.976;24.168;2024-03-29T05:57:14;21.67;;;13.13;;
22007;SDS011;11168;56.976;24.168;2024-03-29T05:59:41;25.98;;;13.55;;
22007;SDS011;11168;56.976;24.168;2024-03-29T06:02:07;23.85;;;13.68;;
22007;SDS011;11168;56.976;24.168;2024-03-29T06:04:33;26.10;;;15.20;;
22007;SDS011;11168;56.976;24.168;2024-03-29T06:07:00;26.55;;;15.80;;
22007;SDS011;11168;56.976;24.168;2024-03-29T06:09:28;25.02;;;14.82;;
22007;SDS011;11168;56.976;24.168;2024-03-29T06:11:55;24.00;;;15.05;;
22007;SDS011;11168;56.976;24.168;2024-03-29T06:14:25;27.38;;;15.63;;
22007;SDS011;11168;56.976;24.168;2024-03-29T06:17:10;24.33;;;15.70;;
22007;SDS011;11168;56.976;24.168;2024-03-29T06:19:51;24.92;;;14.73;;
22007;SDS011;11168;56.976;24.168;2024-03-29T06:22:24;23.15;;;14.48;;
22007;SDS011;11168;56.976;24.168;2024-03-29T06:24:53;23.67;;;14.20;;
22007;SDS011;11168;56.976;24.168;2024-03-29T06:27:19;23.23;;;14.18;;
22007;SDS011;11168;56.976;24.168;2024-03-29T06:29:48;24.48;;;14.50;;
22007;SDS011;11168;56.976;24.168;2024-03-29T06:32:17;22.85;;;14.30;;
22007;SDS011;11168;56.976;24.168;2024-03-29T06:34:47;20.80;;;13.93;;
22007;SDS011;11168;56.976;24.168;2024-03-29T06:37:13;24.42;;;14.75;;
22007;SDS011;11168;56.976;24.168;2024-03-29T06:39:41;24.20;;;14.48;;
22007;SDS011;11168;56.976;24.168;2024-03-29T06:42:09;23.75;;;13.65;;
22007;SDS011;11168;56.976;24.168;2024-03-29T06:44:35;23.55;;;13.75;;
22007;SDS011;11168;56.976;24.168;2024-03-29T06:47:04;18.90;;;12.90;;
22007;SDS011;11168;56.976;24.168;2024-03-29T06:49:30;15.45;;;10.75;;
22007;SDS011;11168;56.976;24.168;2024-03-29T06:51:58;16.73;;;10.82;;
22007;SDS011;11168;56.976;24.168;2024-03-29T06:54:30;18.60;;;12.00;;
22007;SDS011;11168;56.976;24.168;2024-03-29T06:56:57;17.70;;;11.65;;
22007;SDS011;11168;56.976;24.168;2024-03-29T06:59:24;18.58;;;12.07;;
22007;SDS011;11168;56.976;24.168;2024-03-29T07:01:53;20.88;;;13.32;;
22007;SDS011;11168;56.976;24.168;2024-03-29T07:04:23;20.92;;;13.23;;
22007;SDS011;11168;56.976;24.168;2024-03-29T07:06:50;21.90;;;13.20;;
22007;SDS011;11168;56.976;24.168;2024-03-29T07:09:17;20.52;;;13.95;;
22007;SDS011;11168;56.976;24.168;2024-03-29T07:11:46;22.58;;;14.23;;
22007;SDS011;11168;56.976;24.168;2024-03-29T07:14:16;26.05;;;14.48;;
22007;SDS011;11168;56.976;24.168;2024-03-29T07:16:43;26.60;;;15.55;;
22007;SDS011;11168;56.976;24.168;2024-03-29T07:19:10;25.08;;;15.65;;
22007;SDS011;11168;56.976;24.168;2024-03-29T07:21:44;25.67;;;16.52;;
22007;SDS011;11168;56.976;24.168;2024-03-29T07:24:14;27.33;;;17.80;;
22007;SDS011;11168;56.976;24.168;2024-03-29T07:26:42;29.95;;;17.80;;
22007;SDS011;11168;56.976;24.168;2024-03-29T07:29:11;28.98;;;17.88;;
22007;SDS011;11168;56.976;24.168;2024-03-29T07:31:37;31.45;;;18.73;;
22007;SDS011;11168;56.976;24.168;2024-03-29T07:34:03;31.33;;;18.20;;
22007;SDS011;11168;56.976;24.168;2024-03-29T07:36:29;32.22;;;18.90;;
22007;SDS011;11168;56.976;24.168;2024-03-29T07:39:01;31.83;;;19.80;;
22007;SDS011;11168;56.976;24.168;2024-03-29T07:41:27;33.22;;;20.75;;
22007;SDS011;11168;56.976;24.168;2024-03-29T07:43:55;31.95;;;19.98;;
22007;SDS011;11168;56.976;24.168;2024-03-29T07:46:27;32.97;;;21.42;;
22007;SDS011;11168;56.976;24.168;2024-03-29T07:48:54;37.75;;;22.05;;
22007;SDS011;11168;56.976;24.168;2024-03-29T07:51:20;38.05;;;22.60;;
22007;SDS011;11168;56.976;24.168;2024-03-29T07:53:47;37.72;;;23.25;;
22007;SDS011;11168;56.976;24.168;2024-03-29T07:56:15;35.20;;;23.52;;
22007;SDS011;11168;56.976;24.168;2024-03-29T07:58:42;40.58;;;26.65;;
22007;SDS011;11168;56.976;24.168;2024-03-29T08:01:09;44.17;;;26.25;;
22007;SDS011;11168;56.976;24.168;2024-03-29T08:03:36;39.55;;;25.65;;
22007;SDS011;11168;56.976;24.168;2024-03-29T08:06:02;41.22;;;26.70;;
22007;SDS011;11168;56.976;24.168;2024-03-29T08:08:32;41.75;;;26.73;;
22007;SDS011;11168;56.976;24.168;2024-03-29T08:10:59;42.13;;;27.67;;
22007;SDS011;11168;56.976;24.168;2024-03-29T08:13:25;43.53;;;27.15;;
22007;SDS011;11168;56.976;24.168;2024-03-29T08:15:58;40.88;;;28.67;;
22007;SDS011;11168;56.976;24.168;2024-03-29T08:18:25;40.47;;;27.92;;
22007;SDS011;11168;56.976;24.168;2024-03-29T08:20:52;45.90;;;30.48;;
22007;SDS011;11168;56.976;24.168;2024-03-29T08:23:22;45.77;;;30.93;;
22007;SDS011;11168;56.976;24.168;2024-03-29T08:25:48;43.25;;;30.85;;
22007;SDS011;11168;56.976;24.168;2024-03-29T08:28:20;37.33;;;27.40;;
22007;SDS011;11168;56.976;24.168;2024-03-29T08:30:56;31.27;;;23.45;;
22007;SDS011;11168;56.976;24.168;2024-03-29T08:33:24;31.65;;;23.75;;
22007;SDS011;11168;56.976;24.168;2024-03-29T08:35:51;28.75;;;23.17;;
22007;SDS011;11168;56.976;24.168;2024-03-29T08:38:19;30.13;;;22.23;;
22007;SDS011;11168;56.976;24.168;2024-03-29T08:40:46;25.70;;;20.10;;
22007;SDS011;11168;56.976;24.168;2024-03-29T08:43:16;31.13;;;20.77;;
22007;SDS011;11168;56.976;24.168;2024-03-29T08:45:46;25.42;;;18.48;;
22007;SDS011;11168;56.976;24.168;2024-03-29T08:48:12;24.52;;;19.42;;
22007;SDS011;11168;56.976;24.168;2024-03-29T08:50:39;27.80;;;19.58;;
22007;SDS011;11168;56.976;24.168;2024-03-29T08:53:05;23.52;;;19.05;;
22007;SDS011;11168;56.976;24.168;2024-03-29T08:55:32;26.42;;;19.73;;
22007;SDS011;11168;56.976;24.168;2024-03-29T08:57:59;28.42;;;20.23;;
22007;SDS011;11168;56.976;24.168;2024-03-29T09:00:26;22.80;;;17.50;;
22007;SDS011;11168;56.976;24.168;2024-03-29T09:02:53;20.45;;;15.60;;
22007;SDS011;11168;56.976;24.168;2024-03-29T09:05:19;18.08;;;14.13;;
22007;SDS011;11168;56.976;24.168;2024-03-29T09:07:47;21.80;;;15.13;;
22007;SDS011;11168;56.976;24.168;2024-03-29T09:10:14;23.70;;;14.50;;
22007;SDS011;11168;56.976;24.168;2024-03-29T09:12:43;19.00;;;13.95;;
22007;SDS011;11168;56.976;24.168;2024-03-29T09:15:10;19.38;;;12.98;;
22007;SDS011;11168;56.976;24.168;2024-03-29T09:17:42;16.77;;;13.10;;
22007;SDS011;11168;56.976;24.168;2024-03-29T09:20:10;17.65;;;11.55;;
22007;SDS011;11168;56.976;24.168;2024-03-29T09:22:37;16.10;;;12.48;;
22007;SDS011;11168;56.976;24.168;2024-03-29T09:25:06;16.90;;;12.60;;
22007;SDS011;11168;56.976;24.168;2024-03-29T09:27:36;16.70;;;12.18;;
22007;SDS011;11168;56.976;24.168;2024-03-29T09:30:03;13.65;;;11.25;;
22007;SDS011;11168;56.976;24.168;2024-03-29T09:32:32;17.00;;;11.73;;
22007;SDS011;11168;56.976;24.168;2024-03-29T09:34:58;18.25;;;11.77;;
22007;SDS011;11168;56.976;24.168;2024-03-29T09:37:28;14.95;;;10.95;;
22007;SDS011;11168;56.976;24.168;2024-03-29T09:39:54;16.10;;;12.27;;
22007;SDS011;11168;56.976;24.168;2024-03-29T09:42:21;15.57;;;11.00;;
22007;SDS011;11168;56.976;24.168;2024-03-29T09:44:50;10.97;;;9.73;;
22007;SDS011;11168;56.976;24.168;2024-03-29T09:47:17;13.13;;;9.63;;
22007;SDS011;11168;56.976;24.168;2024-03-29T09:49:44;12.25;;;9.85;;
22007;SDS011;11168;56.976;24.168;2024-03-29T09:52:13;12.23;;;9.68;;
22007;SDS011;11168;56.976;24.168;2024-03-29T09:54:39;13.18;;;10.10;;
22007;SDS011;11168;56.976;24.168;2024-03-29T09:57:05;10.30;;;8.70;;
22007;SDS011;11168;56.976;24.168;2024-03-29T09:59:33;9.43;;;8.40;;
22007;SDS011;11168;56.976;24.168;2024-03-29T10:02:00;9.40;;;8.27;;
22007;SDS011;11168;56.976;24.168;2024-03-29T10:04:36;11.80;;;8.07;;
22007;SDS011;11168;56.976;24.168;2024-03-29T10:07:03;10.45;;;8.18;;
22007;SDS011;11168;56.976;24.168;2024-03-29T10:09:29;9.80;;;8.02;;
22007;SDS011;11168;56.976;24.168;2024-03-29T10:11:57;9.45;;;8.18;;
22007;SDS011;11168;56.976;24.168;2024-03-29T10:14:24;9.77;;;7.68;;
22007;SDS011;11168;56.976;24.168;2024-03-29T10:16:51;11.10;;;8.48;;
22007;SDS011;11168;56.976;24.168;2024-03-29T10:19:17;10.45;;;8.10;;
22007;SDS011;11168;56.976;24.168;2024-03-29T10:21:46;12.52;;;8.30;;
22007;SDS011;11168;56.976;24.168;2024-03-29T10:24:12;11.00;;;8.85;;
22007;SDS011;11168;56.976;24.168;2024-03-29T10:26:40;15.27;;;9.63;;
22007;SDS011;11168;56.976;24.168;2024-03-29T10:29:07;12.38;;;10.43;;
22007;SDS011;11168;56.976;24.168;2024-03-29T10:31:36;12.55;;;11.20;;
22007;SDS011;11168;56.976;24.168;2024-03-29T10:34:03;14.10;;;10.38;;
22007;SDS011;11168;56.976;24.168;2024-03-29T10:36:31;7.65;;;6.85;;
22007;SDS011;11168;56.976;24.168;2024-03-29T10:39:08;8.63;;;6.22;;
22007;SDS011;11168;56.976;24.168;2024-03-29T10:41:42;8.93;;;4.88;;
22007;SDS011;11168;56.976;24.168;2024-03-29T10:44:10;4.88;;;3.70;;
22007;SDS011;11168;56.976;24.168;2024-03-29T10:46:40;4.45;;;3.10;;
22007;SDS011;11168;56.976;24.168;2024-03-29T10:49:09;5.00;;;3.05;;
22007;SDS011;11168;56.976;24.168;2024-03-29T10:51:40;4.15;;;2.53;;
22007;SDS011;11168;56.976;24.168;2024-03-29T10:54:10;6.27;;;2.50;;
22007;SDS011;11168;56.976;24.168;2024-03-29T10:56:42;5.80;;;1.75;;
22007;SDS011;11168;56.976;24.168;2024-03-29T11:02:00;2.17;;;1.25;;
22007;SDS011;11168;56.976;24.168;2024-03-29T11:04:32;2.10;;;0.90;;
22007;SDS011;11168;56.976;24.168;2024-03-29T11:07:06;2.30;;;0.82;;
22007;SDS011;11168;56.976;24.168;2024-03-29T11:09:33;3.05;;;0.80;;
22007;SDS011;11168;56.976;24.168;2024-03-29T11:12:01;1.35;;;0.70;;
22007;SDS011;11168;56.976;24.168;2024-03-29T11:14:52;2.30;;;0.80;;
22007;SDS011;11168;56.976;24.168;2024-03-29T11:17:21;3.13;;;0.77;;
22007;SDS011;11168;56.976;24.168;2024-03-29T11:19:48;4.55;;;0.95;;
22007;SDS011;11168;56.976;24.168;2024-03-29T11:22:15;3.95;;;1.05;;
22007;SDS011;11168;56.976;24.168;2024-03-29T11:24:41;1.23;;;0.63;;
22007;SDS011;11168;56.976;24.168;2024-03-29T11:27:11;2.95;;;0.90;;
22007;SDS011;11168;56.976;24.168;2024-03-29T11:29:41;5.60;;;1.37;;
22007;SDS011;11168;56.976;24.168;2024-03-29T11:32:09;4.40;;;0.90;;
22007;SDS011;11168;56.976;24.168;2024-03-29T11:34:42;3.33;;;1.02;;
22007;SDS011;11168;56.976;24.168;2024-03-29T11:37:09;5.88;;;0.90;;
22007;SDS011;11168;56.976;24.168;2024-03-29T11:39:37;2.75;;;0.75;;
22007;SDS011;11168;56.976;24.168;2024-03-29T11:42:03;1.38;;;0.75;;
22007;SDS011;11168;56.976;24.168;2024-03-29T11:44:30;1.73;;;0.80;;
22007;SDS011;11168;56.976;24.168;2024-03-29T11:46:58;2.85;;;0.90;;
22007;SDS011;11168;56.976;24.168;2024-03-29T11:49:25;4.78;;;0.90;;
22007;SDS011;11168;56.976;24.168;2024-03-29T11:52:01;0.80;;;0.50;;
22007;SDS011;11168;56.976;24.168;2024-03-29T11:54:29;5.72;;;0.80;;
22007;SDS011;11168;56.976;24.168;2024-03-29T11:57:01;1.42;;;0.80;;
22007;SDS011;11168;56.976;24.168;2024-03-29T11:59:27;2.45;;;0.80;;
22007;SDS011;11168;56.976;24.168;2024-03-29T12:01:54;2.17;;;0.90;;
22007;SDS011;11168;56.976;24.168;2024-03-29T12:04:22;2.95;;;1.00;;
22007;SDS011;11168;56.976;24.168;2024-03-29T12:06:49;4.43;;;1.20;;
22007;SDS011;11168;56.976;24.168;2024-03-29T12:09:15;2.30;;;0.90;;
22007;SDS011;11168;56.976;24.168;2024-03-29T12:11:43;2.00;;;0.90;;
22007;SDS011;11168;56.976;24.168;2024-03-29T12:14:11;2.30;;;0.90;;
22007;SDS011;11168;56.976;24.168;2024-03-29T12:16:44;2.80;;;0.98;;
22007;SDS011;11168;56.976;24.168;2024-03-29T12:19:24;1.90;;;1.00;;
22007;SDS011;11168;56.976;24.168;2024-03-29T12:21:50;1.05;;;0.95;;
22007;SDS011;11168;56.976;24.168;2024-03-29T12:24:17;0.98;;;0.82;;
22007;SDS011;11168;56.976;24.168;2024-03-29T12:26:43;3.05;;;1.10;;
22007;SDS011;11168;56.976;24.168;2024-03-29T12:29:11;2.92;;;1.20;;
22007;SDS011;11168;56.976;24.168;2024-03-29T12:31:37;1.65;;;0.98;;
22007;SDS011;11168;56.976;24.168;2024-03-29T12:34:06;1.25;;;0.90;;
22007;SDS011;11168;56.976;24.168;2024-03-29T12:36:33;1.48;;;0.82;;
22007;SDS011;11168;56.976;24.168;2024-03-29T12:38:59;1.27;;;0.70;;
22007;SDS011;11168;56.976;24.168;2024-03-29T12:41:29;3.28;;;0.85;;
22007;SDS011;11168;56.976;24.168;2024-03-29T12:43:55;2.45;;;0.80;;
22007;SDS011;11168;56.976;24.168;2024-03-29T12:46:21;1.40;;;0.90;;
22007;SDS011;11168;56.976;24.168;2024-03-29T12:48:47;1.88;;;1.10;;
22007;SDS011;11168;56.976;24.168;2024-03-29T12:51:13;2.92;;;0.98;;
22007;SDS011;11168;56.976;24.168;2024-03-29T12:53:44;2.08;;;1.10;;
22007;SDS011;11168;56.976;24.168;2024-03-29T12:56:10;1.92;;;0.90;;
22007;SDS011;11168;56.976;24.168;2024-03-29T12:58:36;3.70;;;1.25;;
22007;SDS011;11168;56.976;24.168;2024-03-29T13:01:03;4.72;;;1.50;;
22007;SDS011;11168;56.976;24.168;2024-03-29T13:03:31;6.28;;;1.48;;
22007;SDS011;11168;56.976;24.168;2024-03-29T13:05:57;3.90;;;1.20;;
22007;SDS011;11168;56.976;24.168;2024-03-29T13:08:23;1.77;;;1.13;;
22007;SDS011;11168;56.976;24.168;2024-03-29T13:10:50;1.95;;;1.30;;
22007;SDS011;11168;56.976;24.168;2024-03-29T13:13:16;2.25;;;1.42;;
22007;SDS011;11168;56.976;24.168;2024-03-29T13:15:42;3.17;;;1.60;;
22007;SDS011;11168;56.976;24.168;2024-03-29T13:18:08;3.72;;;1.55;;
22007;SDS011;11168;56.976;24.168;2024-03-29T13:20:36;3.17;;;1.65;;
22007;SDS011;11168;56.976;24.168;2024-03-29T13:23:08;1.92;;;1.50;;
22007;SDS011;11168;56.976;24.168;2024-03-29T13:25:34;2.13;;;1.63;;
22007;SDS011;11168;56.976;24.168;2024-03-29T13:28:00;2.15;;;1.50;;
22007;SDS011;11168;56.976;24.168;2024-03-29T13:30:27;2.63;;;1.50;;
22007;SDS011;11168;56.976;24.168;2024-03-29T13:32:53;3.70;;;1.75;;
22007;SDS011;11168;56.976;24.168;2024-03-29T13:35:19;3.78;;;1.65;;
22007;SDS011;11168;56.976;24.168;2024-03-29T13:37:49;1.52;;;1.33;;
22007;SDS011;11168;56.976;24.168;2024-03-29T13:40:16;3.05;;;1.80;;
22007;SDS011;11168;56.976;24.168;2024-03-29T13:42:44;1.90;;;1.70;;
22007;SDS011;11168;56.976;24.168;2024-03-29T13:45:11;3.30;;;1.80;;
22007;SDS011;11168;56.976;24.168;2024-03-29T13:47:37;3.13;;;1.90;;
22007;SDS011;11168;56.976;24.168;2024-03-29T13:50:07;3.08;;;1.80;;
22007;SDS011;11168;56.976;24.168;2024-03-29T13:52:34;2.63;;;2.17;;
22007;SDS011;11168;56.976;24.168;2024-03-29T13:55:01;2.83;;;2.00;;
22007;SDS011;11168;56.976;24.168;2024-03-29T13:57:29;2.92;;;1.88;;
22007;SDS011;11168;56.976;24.168;2024-03-29T13:59:56;4.50;;;2.33;;
22007;SDS011;11168;56.976;24.168;2024-03-29T14:02:23;4.78;;;2.60;;
22007;SDS011;11168;56.976;24.168;2024-03-29T14:04:53;3.40;;;2.50;;
22007;SDS011;11168;56.976;24.168;2024-03-29T14:07:19;3.88;;;2.38;;
22007;SDS011;11168;56.976;24.168;2024-03-29T14:09:45;2.95;;;2.40;;
22007;SDS011;11168;56.976;24.168;2024-03-29T14:12:12;5.75;;;2.80;;
22007;SDS011;11168;56.976;24.168;2024-03-29T14:14:39;4.03;;;2.38;;
22007;SDS011;11168;56.976;24.168;2024-03-29T14:17:07;4.10;;;2.85;;
22007;SDS011;11168;56.976;24.168;2024-03-29T14:19:36;4.28;;;2.75;;
22007;SDS011;11168;56.976;24.168;2024-03-29T14:22:04;4.35;;;2.60;;
22007;SDS011;11168;56.976;24.168;2024-03-29T14:24:31;4.50;;;2.72;;